createdAt,value
2022-08-19T00:01:13.044Z,22.28
2022-08-19T00:04:01.459Z,22.27
2022-08-19T00:06:49.496Z,22.31
2022-08-19T00:09:36.632Z,22.34
2022-08-19T00:12:16.470Z,22.36
2022-08-19T00:15:10.437Z,22.38
2022-08-19T00:17:52.890Z,22.43
2022-08-19T00:20:39.450Z,22.50
2022-08-19T00:23:26.426Z,22.47
2022-08-19T00:26:06.517Z,22.44
2022-08-19T00:28:54.442Z,22.43
2022-08-19T00:31:42.427Z,22.46
2022-08-19T00:34:23.727Z,22.50
2022-08-19T00:37:12.429Z,22.55
2022-08-19T00:40:00.514Z,22.51
2022-08-19T00:42:40.489Z,22.53
2022-08-19T00:45:30.463Z,22.45
2022-08-19T00:48:15.192Z,22.50
2022-08-19T00:51:03.405Z,22.42
2022-08-19T00:53:44.543Z,22.40
2022-08-19T00:56:32.417Z,22.39
2022-08-19T00:59:56.169Z,22.40
2022-08-19T01:02:27.413Z,22.24
2022-08-19T01:05:12.700Z,22.25
2022-08-19T01:07:59.396Z,22.24
2022-08-19T01:10:55.409Z,22.20
2022-08-19T01:13:50.450Z,22.18
2022-08-19T01:16:38.516Z,22.14
2022-08-19T01:19:44.363Z,22.13
2022-08-19T01:22:33.725Z,22.12
2022-08-19T01:25:15.054Z,22.15
2022-08-19T01:27:56.646Z,22.14
2022-08-19T01:30:51.401Z,22.16
2022-08-19T01:33:32.107Z,22.22
2022-08-19T01:36:28.393Z,22.23
2022-08-19T01:39:13.809Z,22.21
2022-08-19T01:42:02.370Z,22.23
2022-08-19T01:44:42.779Z,22.17
2022-08-19T01:47:29.336Z,22.15
2022-08-19T01:50:18.364Z,22.15
2022-08-19T01:53:06.536Z,22.16
2022-08-19T01:55:49.610Z,22.11
2022-08-19T01:58:41.368Z,22.09
2022-08-19T02:01:28.399Z,22.07
2022-08-19T02:04:11.468Z,22.09
2022-08-19T02:06:58.321Z,22.05
2022-08-19T02:09:39.467Z,22.02
2022-08-19T02:12:26.324Z,22.04
2022-08-19T02:15:08.520Z,22.02
2022-08-19T02:17:56.310Z,22.04
2022-08-19T02:20:36.783Z,21.98
2022-08-19T02:23:24.305Z,21.96
2022-08-19T02:26:11.317Z,21.92
2022-08-19T02:28:58.309Z,21.90
2022-08-19T02:31:47.296Z,21.89
2022-08-19T02:34:27.751Z,21.87
2022-08-19T02:37:35.072Z,21.88
2022-08-19T02:40:16.170Z,21.79
2022-08-19T02:43:03.307Z,21.75
2022-08-19T02:45:43.805Z,21.72
2022-08-19T02:48:32.289Z,21.83
2022-08-19T02:51:21.892Z,21.86
2022-08-19T03:13:25.112Z,20.87
2022-08-19T03:16:06.496Z,20.99
2022-08-19T03:18:54.101Z,21.01
2022-08-19T03:21:42.107Z,21.07
2022-08-19T03:24:23.358Z,21.16
2022-08-19T03:27:13.054Z,21.26
2022-08-19T03:29:53.183Z,21.27
2022-08-19T03:32:45.295Z,21.37
2022-08-19T03:35:25.225Z,21.35
2022-08-19T03:38:14.088Z,21.31
2022-08-19T03:40:54.158Z,21.39
2022-08-19T03:43:46.091Z,21.37
2022-08-19T03:46:29.262Z,21.37
2022-08-19T03:49:16.054Z,21.42
2022-08-19T03:51:58.279Z,21.49
2022-08-19T03:54:46.094Z,21.60
2022-08-19T03:57:31.671Z,21.67
2022-08-19T04:00:20.062Z,21.74
2022-08-19T04:03:00.874Z,21.86
2022-08-19T04:05:48.097Z,22.02
2022-08-19T04:08:28.224Z,22.38
2022-08-19T04:11:21.054Z,22.64
2022-08-19T04:16:56.151Z,23.32
2022-08-19T04:19:38.052Z,23.93
2022-08-19T04:22:26.039Z,24.11
2022-08-19T04:25:09.136Z,24.35
2022-08-19T04:27:56.012Z,24.35
2022-08-19T04:30:42.976Z,24.74
2022-08-19T04:33:28.634Z,25.09
2022-08-19T04:36:15.979Z,25.22
2022-08-19T04:39:02.043Z,25.39
2022-08-19T04:42:07.015Z,25.93
2022-08-19T04:44:47.420Z,26.13
2022-08-19T04:47:47.908Z,25.81
2022-08-19T04:50:41.042Z,26.31
2022-08-19T04:53:21.418Z,26.39
2022-08-19T04:56:15.013Z,26.36
2022-08-19T04:58:55.144Z,26.49
2022-08-19T05:01:43.994Z,26.74
2022-08-19T05:04:27.082Z,27.09
2022-08-19T05:07:15.032Z,27.19
2022-08-19T05:10:01.995Z,27.69
2022-08-19T05:12:49.024Z,27.89
2022-08-19T05:15:29.099Z,28.35
2022-08-19T05:18:45.960Z,29.00
2022-08-19T05:21:46.597Z,29.02
2022-08-19T05:24:33.944Z,29.64
2022-08-19T05:27:14.758Z,29.72
2022-08-19T05:30:02.012Z,30.16
2022-08-19T05:32:48.986Z,29.81
2022-08-19T05:35:35.938Z,30.14
2022-08-19T05:38:22.984Z,30.40
2022-08-19T05:41:14.636Z,29.91
2022-08-19T05:44:00.977Z,30.63
2022-08-19T05:46:44.614Z,31.45
2022-08-19T05:49:30.988Z,31.19
2022-08-19T05:52:26.180Z,30.68
2022-08-19T05:55:06.432Z,31.12
2022-08-19T05:57:52.946Z,31.38
2022-08-19T06:00:33.095Z,31.71
2022-08-19T06:03:19.939Z,32.15
2022-08-19T06:06:00.571Z,32.60
2022-08-19T06:08:46.925Z,33.07
2022-08-19T06:11:35.933Z,33.33
2022-08-19T06:14:28.880Z,32.47
2022-08-19T06:17:16.933Z,33.17
2022-08-19T06:20:05.941Z,32.85
2022-08-19T06:22:54.908Z,32.79
2022-08-19T06:25:36.345Z,34.28
2022-08-19T06:28:23.105Z,33.57
2022-08-19T06:31:13.891Z,33.84
2022-08-19T06:33:55.035Z,35.37
2022-08-19T06:36:45.926Z,35.45
2022-08-19T06:39:40.959Z,35.71
2022-08-19T06:42:22.409Z,35.33
2022-08-19T06:45:11.887Z,36.24
2022-08-19T06:48:00.094Z,35.34
2022-08-19T06:50:45.087Z,34.79
2022-08-19T06:53:25.753Z,35.44
2022-08-19T06:56:12.879Z,35.64
2022-08-19T06:58:53.931Z,35.57
2022-08-19T07:01:40.880Z,36.21
2022-08-19T07:04:33.079Z,35.99
2022-08-19T07:07:21.333Z,36.35
2022-08-19T07:10:09.874Z,36.48
2022-08-19T07:12:57.905Z,35.31
2022-08-19T07:15:39.697Z,33.77
2022-08-19T07:18:27.224Z,33.14
2022-08-19T07:21:12.331Z,31.72
2022-08-19T07:24:01.885Z,31.49
2022-08-19T07:26:52.107Z,31.59
2022-08-19T07:29:31.969Z,32.64
2022-08-19T07:32:18.860Z,32.09
2022-08-19T07:34:59.079Z,32.23
2022-08-19T07:37:46.897Z,32.36
2022-08-19T07:40:26.979Z,32.79
2022-08-19T07:43:23.336Z,33.31
2022-08-19T07:46:03.053Z,33.87
2022-08-19T07:48:52.849Z,33.25
2022-08-19T07:51:36.292Z,33.40
2022-08-19T07:54:24.790Z,33.72
2022-08-19T07:57:05.970Z,33.87
2022-08-19T07:59:52.833Z,33.97
2022-08-19T08:02:32.953Z,33.72
2022-08-19T08:05:41.779Z,33.55
2022-08-19T08:08:48.860Z,33.00
2022-08-19T08:11:35.821Z,33.34
2022-08-19T08:14:29.601Z,33.22
2022-08-19T08:17:31.136Z,33.80
2022-08-19T08:20:27.965Z,34.40
2022-08-19T08:23:29.822Z,34.91
2022-08-19T08:26:16.759Z,34.73
2022-08-19T08:29:12.306Z,34.54
2022-08-19T08:32:01.808Z,35.18
2022-08-19T08:34:42.721Z,34.81
2022-08-19T08:37:29.773Z,34.85
2022-08-19T08:40:50.781Z,35.25
2022-08-19T08:43:49.815Z,35.28
2022-08-19T08:46:43.388Z,36.21
2022-08-19T08:49:42.786Z,38.19
2022-08-19T08:52:36.378Z,39.92
2022-08-19T08:55:36.728Z,40.71
2022-08-19T08:59:04.828Z,42.76
2022-08-19T09:01:51.817Z,44.93
2022-08-19T09:04:32.270Z,45.10
2022-08-19T09:07:38.874Z,44.67
2022-08-19T09:35:50.166Z,44.27
2022-08-19T09:38:34.882Z,45.10
2022-08-19T09:41:28.735Z,42.55
2022-08-19T09:44:13.928Z,40.22
2022-08-19T09:47:00.686Z,37.81
2022-08-19T09:49:41.738Z,39.30
2022-08-19T09:52:32.661Z,42.93
2022-08-19T09:55:19.678Z,44.46
2022-08-19T09:58:08.676Z,44.75
2022-08-19T10:00:51.022Z,42.88
2022-08-19T10:03:40.689Z,39.89
2022-08-19T10:06:45.520Z,44.35
2022-08-19T10:09:34.129Z,45.28
2022-08-19T10:12:17.863Z,46.55
2022-08-19T10:15:06.652Z,48.37
2022-08-19T10:17:48.066Z,45.36
2022-08-19T10:20:42.663Z,45.96
2022-08-19T10:23:24.048Z,46.05
2022-08-19T10:26:14.687Z,46.95
2022-08-19T10:28:57.222Z,44.97
2022-08-19T10:32:01.491Z,45.07
2022-08-19T10:34:57.637Z,47.45
2022-08-19T10:37:57.401Z,48.75
2022-08-19T10:40:37.785Z,48.92
2022-08-19T10:43:25.659Z,46.19
2022-08-19T10:46:14.155Z,46.04
2022-08-19T10:49:03.638Z,47.02
2022-08-19T10:52:04.626Z,46.87
2022-08-19T10:55:14.659Z,42.97
2022-08-19T10:58:03.287Z,43.61
2022-08-19T11:00:48.102Z,41.69
2022-08-19T11:03:38.629Z,38.43
2022-08-19T11:06:20.631Z,36.69
2022-08-19T11:09:12.627Z,36.37
2022-08-19T11:12:03.057Z,33.38
2022-08-19T11:14:51.632Z,32.21
2022-08-19T11:17:32.661Z,33.74
2022-08-19T11:20:19.588Z,34.84
2022-08-19T11:23:00.019Z,32.55
2022-08-19T11:25:53.635Z,30.90
2022-08-19T11:28:34.090Z,30.06
2022-08-19T11:31:31.598Z,30.23
2022-08-19T11:34:22.588Z,29.50
2022-08-19T11:37:04.648Z,29.10
2022-08-19T11:39:51.883Z,28.64
2022-08-19T11:42:58.602Z,28.46
2022-08-19T11:45:45.573Z,28.27
2022-08-19T11:48:33.570Z,28.47
2022-08-19T11:51:16.339Z,28.50
2022-08-19T11:54:03.586Z,28.47
2022-08-19T11:56:51.586Z,28.53
2022-08-19T11:59:31.758Z,28.59
2022-08-19T12:02:18.559Z,28.22
2022-08-19T12:05:10.199Z,28.27
2022-08-19T12:07:58.531Z,28.41
2022-08-19T12:10:38.712Z,28.36
2022-08-19T12:13:26.542Z,28.43
2022-08-19T12:16:07.507Z,28.41
2022-08-19T12:18:54.541Z,28.42
2022-08-19T12:21:35.636Z,28.03
2022-08-19T12:24:22.534Z,28.35
2022-08-19T12:27:12.583Z,28.59
2022-08-19T12:29:59.592Z,28.57
2022-08-19T12:32:47.548Z,28.58
2022-08-19T12:35:45.491Z,28.05
2022-08-19T12:38:26.011Z,27.96
2022-08-19T12:41:14.516Z,27.86
2022-08-19T12:44:01.541Z,27.82
2022-08-19T12:46:48.532Z,27.64
2022-08-19T12:49:53.388Z,27.94
2022-08-19T12:52:35.541Z,28.10
2022-08-19T12:55:22.480Z,28.16
2022-08-19T12:58:02.655Z,28.15
2022-08-19T13:00:49.523Z,27.88
2022-08-19T13:03:40.449Z,27.82
2022-08-19T13:06:27.491Z,27.79
2022-08-19T13:09:14.538Z,27.82
2022-08-19T13:12:01.469Z,27.64
2022-08-19T13:14:49.487Z,27.72
2022-08-19T13:17:36.620Z,27.62
2022-08-19T13:20:18.479Z,27.58
2022-08-19T13:23:05.498Z,27.52
2022-08-19T13:25:52.507Z,27.62
2022-08-19T13:28:58.498Z,27.44
2022-08-19T13:31:59.461Z,27.24
2022-08-19T13:34:47.500Z,27.36
2022-08-19T13:37:49.541Z,27.41
2022-08-19T13:40:36.459Z,27.53
2022-08-19T13:43:26.615Z,27.51
2022-08-19T13:46:07.449Z,27.66
2022-08-19T13:48:51.756Z,27.81
2022-08-19T13:51:38.442Z,27.77
2022-08-19T13:54:26.494Z,27.65
2022-08-19T13:57:06.594Z,27.57
2022-08-19T13:59:53.456Z,27.53
2022-08-19T14:02:40.454Z,27.56
2022-08-19T14:05:21.898Z,27.37
2022-08-19T14:08:08.468Z,27.43
2022-08-19T14:10:56.441Z,27.34
2022-08-19T14:13:43.460Z,27.33
2022-08-19T14:16:23.925Z,27.33
2022-08-19T14:19:10.431Z,27.41
2022-08-19T14:21:50.935Z,27.37
2022-08-19T14:24:37.398Z,27.51
2022-08-19T14:27:18.009Z,27.53
2022-08-19T14:30:04.591Z,27.33
2022-08-19T14:32:44.901Z,27.24
2022-08-19T14:35:31.433Z,27.15
2022-08-19T14:38:17.578Z,27.06
2022-08-19T14:41:05.435Z,27.15
2022-08-19T14:43:47.502Z,27.13
2022-08-19T14:46:38.418Z,27.09
2022-08-19T14:49:19.470Z,27.04
2022-08-19T14:52:06.401Z,27.13
2022-08-19T14:54:53.435Z,27.09
2022-08-19T14:57:33.534Z,26.99
2022-08-19T15:00:21.428Z,26.99
2022-08-19T15:03:01.529Z,27.04
2022-08-19T15:05:48.379Z,26.97
2022-08-19T15:08:28.516Z,26.95
2022-08-19T15:28:11.392Z,26.09
2022-08-19T15:30:59.410Z,26.21
2022-08-19T15:33:42.946Z,26.14
2022-08-19T15:36:30.390Z,26.21
2022-08-19T15:39:19.386Z,26.20
2022-08-19T15:42:07.371Z,26.25
2022-08-19T15:44:47.530Z,26.31
2022-08-19T15:47:37.359Z,26.38
2022-08-19T15:50:22.725Z,26.41
2022-08-19T15:53:13.383Z,26.28
2022-08-19T15:55:53.553Z,26.01
2022-08-19T15:58:59.368Z,25.93
2022-08-19T16:01:58.233Z,25.89
2022-08-19T16:05:04.368Z,25.95
2022-08-19T16:07:44.468Z,25.98
2022-08-19T16:10:32.366Z,25.96
2022-08-19T16:13:19.354Z,25.84
2022-08-19T16:16:06.383Z,25.80
2022-08-19T16:18:47.590Z,25.86
2022-08-19T16:21:39.350Z,25.87
2022-08-19T16:24:23.481Z,25.95
2022-08-19T16:27:10.348Z,26.04
2022-08-19T16:29:50.475Z,25.94
2022-08-19T16:32:37.332Z,25.98
2022-08-19T16:35:17.462Z,25.94
2022-08-19T16:38:04.358Z,25.88
2022-08-19T16:40:51.334Z,25.90
2022-08-19T16:43:38.345Z,25.86
2022-08-19T16:46:18.676Z,25.82
2022-08-19T16:49:06.393Z,25.82
2022-08-19T16:51:47.519Z,25.80
2022-08-19T16:54:35.365Z,25.62
2022-08-19T16:57:16.149Z,25.60
2022-08-19T17:00:03.324Z,25.53
2022-08-19T17:02:43.518Z,25.63
2022-08-19T17:05:30.286Z,25.46
2022-08-19T17:08:10.416Z,25.55
2022-08-19T17:11:16.914Z,25.65
2022-08-19T17:13:58.311Z,25.63
2022-08-19T17:16:47.384Z,25.57
2022-08-19T17:19:28.383Z,25.60
2022-08-19T17:22:15.330Z,25.57
2022-08-19T17:25:02.297Z,25.49
2022-08-19T17:27:56.366Z,25.45
2022-08-19T17:30:36.942Z,25.32
2022-08-19T17:33:24.305Z,25.28
2022-08-19T17:36:06.656Z,25.39
2022-08-19T17:38:53.252Z,25.42
2022-08-19T17:41:41.272Z,25.39
2022-08-19T17:44:21.424Z,25.43
2022-08-19T17:47:08.272Z,25.32
2022-08-19T17:49:48.460Z,25.24
2022-08-19T17:52:35.278Z,25.34
2022-08-19T17:55:15.539Z,25.31
2022-08-19T17:58:02.219Z,25.21
2022-08-19T18:00:52.734Z,25.16
2022-08-19T18:03:41.293Z,25.11
2022-08-19T18:06:29.255Z,24.97
2022-08-19T18:09:09.718Z,25.06
2022-08-19T18:11:56.237Z,25.08
2022-08-19T18:14:39.376Z,25.11
2022-08-19T18:17:31.251Z,25.12
2022-08-19T18:20:13.595Z,25.11
2022-08-19T18:23:41.226Z,25.14
2022-08-19T18:26:05.122Z,25.18
2022-08-19T18:28:52.213Z,25.16
2022-08-19T18:31:33.161Z,25.14
2022-08-19T18:34:20.224Z,25.05
2022-08-19T18:37:00.596Z,25.08
2022-08-19T18:40:05.272Z,25.02
2022-08-19T18:43:05.040Z,24.95
2022-08-19T18:46:12.216Z,24.94
2022-08-19T18:49:11.206Z,24.88
2022-08-19T18:51:51.573Z,24.86
2022-08-19T18:54:39.211Z,24.82
2022-08-19T18:57:24.881Z,24.80
2022-08-19T19:00:14.215Z,24.79
2022-08-19T19:02:54.699Z,24.78
2022-08-19T19:05:41.201Z,24.74
2022-08-19T19:08:26.991Z,24.69
2022-08-19T19:11:15.211Z,24.64
2022-08-19T19:14:02.179Z,24.60
2022-08-19T19:16:55.143Z,24.40
2022-08-19T19:19:43.193Z,24.38
2022-08-19T19:22:31.207Z,24.38
2022-08-19T19:25:18.190Z,24.44
2022-08-19T19:28:05.354Z,24.41
2022-08-19T19:30:46.205Z,24.34
2022-08-19T19:33:28.320Z,24.30
2022-08-19T19:36:15.142Z,24.27
2022-08-19T19:38:56.705Z,24.31
2022-08-19T19:41:43.138Z,24.32
2022-08-19T19:44:30.344Z,24.25
2022-08-19T19:47:18.120Z,24.27
2022-08-19T19:50:15.583Z,24.33
2022-08-19T19:53:03.149Z,24.34
2022-08-19T19:55:43.638Z,24.37
2022-08-19T19:58:30.159Z,24.32
2022-08-19T20:01:21.767Z,24.35
2022-08-19T20:04:05.325Z,24.18
2022-08-19T20:06:53.113Z,24.07
2022-08-19T20:09:58.783Z,24.00
2022-08-19T20:12:40.542Z,23.88
2022-08-19T20:15:28.129Z,23.88
2022-08-19T20:18:15.080Z,23.82
2022-08-19T20:20:55.318Z,23.80
2022-08-19T20:23:42.130Z,23.73
2022-08-19T20:26:32.296Z,23.74
2022-08-19T20:29:38.073Z,23.71
2022-08-19T20:32:19.267Z,23.62
2022-08-19T20:35:07.098Z,23.59
2022-08-19T20:37:47.272Z,23.59
2022-08-19T20:40:35.083Z,23.52
2022-08-19T20:43:17.461Z,23.52
2022-08-19T20:46:04.088Z,23.55
2022-08-19T20:48:44.241Z,23.51
2022-08-19T20:51:35.064Z,23.58
2022-08-19T20:54:15.196Z,23.52
2022-08-19T20:57:02.074Z,23.48
2022-08-19T20:59:49.062Z,23.55
2022-08-19T21:02:36.058Z,23.54
2022-08-19T21:05:25.271Z,23.51
2022-08-19T21:08:09.139Z,23.53
2022-08-19T21:10:56.096Z,23.59
2022-08-19T21:13:36.857Z,23.47
2022-08-19T21:16:24.054Z,23.42
2022-08-19T21:19:11.064Z,23.42
2022-08-19T21:21:58.020Z,23.39
2022-08-19T21:24:38.662Z,23.37
2022-08-19T21:27:25.054Z,23.33
2022-08-19T21:30:13.038Z,23.27
2022-08-19T21:33:00.039Z,23.27
2022-08-19T21:35:40.473Z,23.26
2022-08-19T21:38:27.032Z,23.23
2022-08-19T21:41:14.035Z,23.18
2022-08-19T21:43:54.197Z,23.21
2022-08-19T21:46:41.011Z,23.22
2022-08-19T21:49:21.258Z,23.16
2022-08-19T21:52:09.010Z,23.14
2022-08-19T21:54:49.167Z,23.09
2022-08-19T21:57:36.013Z,23.10
2022-08-19T22:00:26.184Z,23.10
2022-08-19T22:03:13.004Z,23.08
2022-08-19T22:05:59.994Z,23.08
2022-08-19T22:08:49.026Z,23.14
2022-08-19T22:11:33.895Z,23.07
2022-08-19T22:14:20.972Z,23.15
2022-08-19T22:17:03.952Z,23.18
2022-08-19T22:19:51.028Z,23.15
2022-08-19T22:22:34.083Z,23.14
2022-08-19T22:25:30.048Z,23.22
2022-08-19T22:28:28.957Z,23.24
2022-08-19T22:31:11.049Z,23.16
2022-08-19T22:33:58.994Z,23.08
2022-08-19T22:36:39.472Z,23.04
2022-08-19T22:39:25.948Z,23.06
2022-08-19T22:42:07.004Z,23.04
2022-08-19T22:44:53.957Z,23.06
2022-08-19T22:47:35.559Z,23.06
2022-08-19T22:50:25.937Z,23.05
2022-08-19T22:53:14.964Z,23.04
2022-08-19T22:56:01.954Z,23.04
2022-08-19T22:58:50.096Z,23.03
2022-08-19T23:01:30.724Z,23.08
2022-08-19T23:04:17.927Z,22.94
2022-08-19T23:06:58.100Z,22.97
2022-08-19T23:09:44.961Z,22.93
2022-08-19T23:12:45.400Z,22.80
2022-08-19T23:15:37.943Z,22.73
2022-08-19T23:18:20.182Z,22.69
2022-08-19T23:21:07.898Z,22.63
2022-08-19T23:23:48.043Z,22.69
2022-08-19T23:26:36.141Z,22.75
2022-08-19T23:29:48.484Z,22.66
2022-08-19T23:32:35.261Z,22.72
2022-08-19T23:35:21.923Z,22.79
2022-08-19T23:38:10.919Z,22.68
2022-08-19T23:40:57.928Z,22.68
2022-08-19T23:43:47.890Z,22.70
2022-08-19T23:46:31.010Z,22.64
2022-08-19T23:49:29.887Z,22.49
2022-08-19T23:52:10.032Z,22.42
2022-08-19T23:54:57.006Z,22.40
2022-08-19T23:57:37.023Z,22.42
